Time;durP1;ratioP1;P1;durP2;ratioP2;P2;SDS_P1;SDS_P2;PMS_P1;PMS_P2;Temp;Humidity;BMP_temperature;BMP_pressure;BME280_temperature;BME280_humidity;BME280_pressure;Samples;Min_cycle;Max_cycle;Signal;HPM_P1;HPM_P2
2022/12/21 00:02:11;;;;;;;;;;;;;;;;;;5096812;28;19908;-69
2022/12/21 00:04:37;;;;;;;;;;;;;;;;;;5078085;28;19965;-69
2022/12/21 00:07:03;;;;;;;;;;;;;;;;;;5078384;28;19958;-69
2022/12/21 00:09:29;;;;;;;;;;;;;;;;;;5096174;28;19908;-70
2022/12/21 00:11:55;;;;;;;;;;;;;;;;;;5096776;28;19912;-69
2022/12/21 00:14:21;;;;;;;;;;;;;;;;;;5078289;28;19912;-69
2022/12/21 00:16:46;;;;;;;;;;;;;;;;;;5077894;28;19912;-69
2022/12/21 00:19:15;;;;;;;;;;;;;;;;;;5095933;28;19915;-69
2022/12/21 00:21:41;;;;;;;;;;;;;;;;;;5096622;28;19986;-69
2022/12/21 00:24:07;;;;;;;;;;;;;;;;;;5095898;28;20287;-69
2022/12/21 00:26:33;;;;;;;;;;;;;;;;;;5096286;28;19909;-69
2022/12/21 00:28:59;;;;;;;;;;;;;;;;;;5096467;28;19912;-70
2022/12/21 00:31:25;;;;;;;;;;;;;;;;;;5096010;28;19961;-70
2022/12/21 00:33:51;;;;;;;;;;;;;;;;;;5078063;28;19940;-69
2022/12/21 00:36:17;;;;;;;;;;;;;;;;;;5096107;28;20003;-69
2022/12/21 00:38:43;;;;;;;;;;;;;;;;;;5095661;28;19908;-69
2022/12/21 00:41:09;;;;;;;;;;;;;;;;;;5096031;28;20252;-69
2022/12/21 00:43:35;;;;;;;;;;;;;;;;;;5096462;28;20373;-69
2022/12/21 00:46:01;;;;;;;;;;;;;;;;;;5095635;28;20313;-69
2022/12/21 00:48:27;;;;;;;;;;;;;;;;;;5095617;28;20381;-69
2022/12/21 00:50:53;;;;;;;;;;;;;;;;;;5096030;28;19947;-69
2022/12/21 00:53:19;;;;;;;;;;;;;;;;;;5095390;28;19947;-71
2022/12/21 00:55:44;;;;;;;;;;;;;;;;;;5077651;28;19920;-69
2022/12/21 00:58:10;;;;;;;;;;;;;;;;;;5095722;28;19915;-70
2022/12/21 01:00:36;;;;;;;;;;;;;;;;;;5095385;28;20003;-69
2022/12/21 01:03:02;;;;;;;;;;;;;;;;;;5095649;28;19961;-69
2022/12/21 01:05:29;;;;;;;;;;;;;;;;;;5095542;28;19912;-69
2022/12/21 01:07:55;;;;;;;;;;;;;;;;;;5095004;28;20038;-69
2022/12/21 01:10:21;;;;;;;;;;;;;;;;;;5096036;28;20376;-70
2022/12/21 01:12:48;;;;;;;;;;;;;;;;;;5094998;28;20319;-69
2022/12/21 01:15:14;;;;;;;;;;;;;;;;;;5095393;28;20002;-69
2022/12/21 01:17:40;;;;;;;;;;;;;;;;;;5095255;28;20367;-69
2022/12/21 01:20:06;;;;;;;;;;;;;;;;;;5095214;28;19930;-69
2022/12/21 01:22:32;;;;;;;;;;;;;;;;;;5095241;28;20360;-69
2022/12/21 01:24:58;;;;;;;;;;;;;;;;;;5095513;28;19909;-70
2022/12/21 01:27:24;;;;;;;;;;;;;;;;;;5094596;28;19920;-70
2022/12/21 01:29:50;;;;;;;;;;;;;;;;;;5076991;28;20009;-70
2022/12/21 01:32:16;;;;;;;;;;;;;;;;;;5094246;28;20267;-69
2022/12/21 01:34:42;;;;;;;;;;;;;;;;;;5094625;28;20283;-69
2022/12/21 01:37:08;;;;;;;;;;;;;;;;;;5094981;28;20329;-69
2022/12/21 01:39:34;;;;;;;;;;;;;;;;;;5094896;28;19912;-69
2022/12/21 01:42:00;;;;;;;;;;;;;;;;;;5094600;28;19956;-69
2022/12/21 01:44:26;;;;;;;;;;;;;;;;;;5094874;28;19908;-69
2022/12/21 01:46:52;;;;;;;;;;;;;;;;;;5094740;28;19927;-69
2022/12/21 01:49:18;;;;;;;;;;;;;;;;;;5094423;28;19999;-69
2022/12/21 01:51:44;;;;;;;;;;;;;;;;;;5094658;28;19919;-69
2022/12/21 01:54:10;;;;;;;;;;;;;;;;;;5094661;28;20407;-70
2022/12/21 01:56:36;;;;;;;;;;;;;;;;;;5094409;28;19908;-69
2022/12/21 01:59:02;;;;;;;;;;;;;;;;;;5094788;28;19908;-69
2022/12/21 02:01:30;;;;;;;;;;;;;;;;;;5094548;28;19915;-69
2022/12/21 02:03:56;;;;;;;;;;;;;;;;;;5094041;28;19919;-69
2022/12/21 02:06:22;;;;;;;;;;;;;;;;;;5094446;28;19908;-69
2022/12/21 02:08:48;;;;;;;;;;;;;;;;;;5094408;28;20007;-69
2022/12/21 02:11:14;;;;;;;;;;;;;;;;;;5093926;28;19965;-70
2022/12/21 02:13:41;;;;;;;;;;;;;;;;;;5094484;28;19909;-69
2022/12/21 02:16:07;;;;;;;;;;;;;;;;;;5093841;28;20389;-69
2022/12/21 02:18:33;;;;;;;;;;;;;;;;;;5094468;28;19908;-69
2022/12/21 02:20:59;;;;;;;;;;;;;;;;;;5094155;28;20318;-69
2022/12/21 02:23:24;;;;;;;;;;;;;;;;;;5075659;28;20007;-69
2022/12/21 02:25:50;;;;;;;;;;;;;;;;;;5094181;28;20313;-69
2022/12/21 02:28:16;;;;;;;;;;;;;;;;;;5093989;28;19916;-69
2022/12/21 02:30:42;;;;;;;;;;;;;;;;;;5093593;28;19908;-70
2022/12/21 02:33:08;;;;;;;;;;;;;;;;;;5094028;28;19955;-69
2022/12/21 02:35:34;;;;;;;;;;;;;;;;;;5093941;28;19997;-69
2022/12/21 02:38:00;;;;;;;;;;;;;;;;;;5093543;28;19908;-69
2022/12/21 02:40:26;;;;;;;;;;;;;;;;;;5093999;28;19916;-69
2022/12/21 02:45:37;;;;;;;;;;;;;;;;;;5093496;28;19937;-70
2022/12/21 02:48:03;;;;;;;;;;;;;;;;;;5072036;28;20366;-69
2022/12/21 02:50:29;;;;;;;;;;;;;;;;;;5073680;28;19931;-69
2022/12/21 02:52:55;;;;;;;;;;;;;;;;;;5073188;28;19908;-69
2022/12/21 02:55:21;;;;;;;;;;;;;;;;;;5073587;28;19995;-69
2022/12/21 02:57:47;;;;;;;;;;;;;;;;;;5072320;28;19913;-69
2022/12/21 03:00:13;;;;;;;;;;;;;;;;;;5073134;28;19916;-69
2022/12/21 03:02:38;;;;;;;;;;;;;;;;;;5073724;28;19916;-69
2022/12/21 03:05:12;;;;;;;;;;;;;;;;;;5073766;28;19920;-69
2022/12/21 03:07:38;;;;;;;;;;;;;;;;;;5073867;28;19972;-69
2022/12/21 03:10:04;;;;;;;;;;;;;;;;;;5073519;28;20285;-69
2022/12/21 03:12:30;;;;;;;;;;;;;;;;;;5073032;28;19931;-69
2022/12/21 03:14:56;;;;;;;;;;;;;;;;;;5073417;28;19912;-69
2022/12/21 03:17:22;;;;;;;;;;;;;;;;;;5072068;28;19966;-69
2022/12/21 03:19:48;;;;;;;;;;;;;;;;;;5073093;28;20006;-69
2022/12/21 03:22:14;;;;;;;;;;;;;;;;;;5073453;28;19913;-69
2022/12/21 03:24:40;;;;;;;;;;;;;;;;;;5073328;28;20050;-69
2022/12/21 03:27:06;;;;;;;;;;;;;;;;;;5071565;28;19912;-69
2022/12/21 03:29:33;;;;;;;;;;;;;;;;;;5073579;28;19913;-69
2022/12/21 03:31:59;;;;;;;;;;;;;;;;;;5073363;28;20345;-69
2022/12/21 03:34:25;;;;;;;;;;;;;;;;;;5073049;28;19908;-69
2022/12/21 03:36:51;;;;;;;;;;;;;;;;;;5073201;28;19908;-69
2022/12/21 03:39:17;;;;;;;;;;;;;;;;;;5073176;28;20380;-69
2022/12/21 03:41:42;;;;;;;;;;;;;;;;;;5071553;28;19908;-69
2022/12/21 03:44:08;;;;;;;;;;;;;;;;;;5073150;28;20008;-69
2022/12/21 03:46:34;;;;;;;;;;;;;;;;;;5076617;28;19927;-69
2022/12/21 03:49:00;;;;;;;;;;;;;;;;;;5092941;28;19936;-69
2022/12/21 03:51:26;;;;;;;;;;;;;;;;;;5075205;28;19915;-69
2022/12/21 03:53:52;;;;;;;;;;;;;;;;;;5093275;28;20344;-69
2022/12/21 03:56:18;;;;;;;;;;;;;;;;;;5096361;28;19908;-69
2022/12/21 03:58:44;;;;;;;;;;;;;;;;;;5096940;28;20332;-69
2022/12/21 04:01:10;;;;;;;;;;;;;;;;;;5096821;28;19908;-69
2022/12/21 04:03:36;;;;;;;;;;;;;;;;;;5096372;28;19908;-69
2022/12/21 04:06:02;;;;;;;;;;;;;;;;;;5096741;28;19954;-69
2022/12/21 04:08:28;;;;;;;;;;;;;;;;;;5096635;28;19916;-69
2022/12/21 04:10:54;;;;;;;;;;;;;;;;;;5096259;28;19912;-69
2022/12/21 04:13:20;;;;;;;;;;;;;;;;;;5096598;28;19934;-69
2022/12/21 04:16:04;;;;;;;;;;;;;;;;;;5077914;28;19912;-69
2022/12/21 04:21:14;;;;;;;;;;;;;;;;;;5096502;28;19938;-70
2022/12/21 04:29:09;;;;;;;;;;;;;;;;;;5096456;28;19985;-69
2022/12/21 04:31:35;;;;;;;;;;;;;;;;;;5095967;28;19909;-70
2022/12/21 04:34:01;;;;;;;;;;;;;;;;;;5096100;28;19915;-70
2022/12/21 04:39:12;;;;;;;;;;;;;;;;;;5096157;28;19930;-69
2022/12/21 04:41:38;;;;;;;;;;;;;;;;;;5096088;28;19909;-70
2022/12/21 04:44:04;;;;;;;;;;;;;;;;;;5096088;28;19912;-69
2022/12/21 04:46:30;;;;;;;;;;;;;;;;;;5096133;28;20244;-69
2022/12/21 04:48:55;;;;;;;;;;;;;;;;;;5095811;28;20336;-70
2022/12/21 04:51:21;;;;;;;;;;;;;;;;;;5095510;28;19987;-69
2022/12/21 04:53:47;;;;;;;;;;;;;;;;;;5095835;28;19908;-70
2022/12/21 04:56:13;;;;;;;;;;;;;;;;;;5077806;28;19909;-70
2022/12/21 04:58:39;;;;;;;;;;;;;;;;;;5095297;28;20278;-69
2022/12/21 05:01:05;;;;;;;;;;;;;;;;;;5095724;28;20257;-69
2022/12/21 05:03:31;;;;;;;;;;;;;;;;;;5095605;28;19915;-69
2022/12/21 05:05:57;;;;;;;;;;;;;;;;;;5077250;28;19908;-70
2022/12/21 05:08:23;;;;;;;;;;;;;;;;;;5095416;28;19977;-69
2022/12/21 05:10:49;;;;;;;;;;;;;;;;;;5095730;28;19908;-69
2022/12/21 05:13:15;;;;;;;;;;;;;;;;;;5095070;28;19914;-69
2022/12/21 05:15:41;;;;;;;;;;;;;;;;;;5077257;28;19943;-69
2022/12/21 05:18:07;;;;;;;;;;;;;;;;;;5095483;28;19908;-69
2022/12/21 05:20:33;;;;;;;;;;;;;;;;;;5094887;28;19915;-69
2022/12/21 05:22:59;;;;;;;;;;;;;;;;;;5095532;28;19940;-69
2022/12/21 05:25:24;;;;;;;;;;;;;;;;;;5095171;28;19919;-69
2022/12/21 05:27:50;;;;;;;;;;;;;;;;;;5094527;28;20018;-70
2022/12/21 05:30:16;;;;;;;;;;;;;;;;;;5077035;28;20261;-70
2022/12/21 05:32:42;;;;;;;;;;;;;;;;;;5095088;28;19966;-70
2022/12/21 05:35:09;;;;;;;;;;;;;;;;;;5094506;28;20365;-70
2022/12/21 05:37:37;;;;;;;;;;;;;;;;;;5095008;28;19908;-70
2022/12/21 05:40:03;;;;;;;;;;;;;;;;;;5075940;28;19951;-70
2022/12/21 05:42:29;;;;;;;;;;;;;;;;;;5076001;28;19959;-70
2022/12/21 05:44:55;;;;;;;;;;;;;;;;;;5094108;28;19908;-70
2022/12/21 05:47:21;;;;;;;;;;;;;;;;;;5075157;28;19931;-70
2022/12/21 05:49:47;;;;;;;;;;;;;;;;;;5093941;28;20372;-70
2022/12/21 05:52:13;;;;;;;;;;;;;;;;;;5092660;28;20399;-70
2022/12/21 05:54:39;;;;;;;;;;;;;;;;;;5092263;28;19908;-70
2022/12/21 05:57:05;;;;;;;;;;;;;;;;;;5092497;28;19908;-70
2022/12/21 05:59:31;;;;;;;;;;;;;;;;;;5093136;28;19944;-70
2022/12/21 06:01:57;;;;;;;;;;;;;;;;;;5094161;28;19908;-69
2022/12/21 06:04:23;;;;;;;;;;;;;;;;;;5093246;28;19908;-70
2022/12/21 06:06:49;;;;;;;;;;;;;;;;;;5094300;28;19916;-70
2022/12/21 06:09:15;;;;;;;;;;;;;;;;;;5093929;28;19912;-70
2022/12/21 06:11:41;;;;;;;;;;;;;;;;;;5075138;28;19947;-70
2022/12/21 06:14:07;;;;;;;;;;;;;;;;;;5092784;28;19931;-70
2022/12/21 06:16:33;;;;;;;;;;;;;;;;;;5093757;28;19908;-70
2022/12/21 06:18:59;;;;;;;;;;;;;;;;;;5090586;28;19908;-68
2022/12/21 06:21:25;;;;;;;;;;;;;;;;;;5093428;28;20007;-68
2022/12/21 06:23:51;;;;;;;;;;;;;;;;;;5093042;28;19908;-68
2022/12/21 06:26:17;;;;;;;;;;;;;;;;;;5091602;28;19908;-69
2022/12/21 06:28:42;;;;;;;;;;;;;;;;;;5091514;28;20430;-71
2022/12/21 06:31:08;;;;;;;;;;;;;;;;;;5072412;28;19908;-69
2022/12/21 06:33:34;;;;;;;;;;;;;;;;;;5092034;28;19919;-71
2022/12/21 06:36:00;;;;;;;;;;;;;;;;;;5091829;28;19912;-69
2022/12/21 06:38:26;;;;;;;;;;;;;;;;;;5091786;28;19947;-69
2022/12/21 06:40:52;;;;;;;;;;;;;;;;;;5092894;28;19939;-69
2022/12/21 06:43:18;;;;;;;;;;;;;;;;;;5092044;28;19953;-70
2022/12/21 06:45:44;;;;;;;;;;;;;;;;;;5090012;28;19912;-69
2022/12/21 06:48:10;;;;;;;;;;;;;;;;;;5089811;28;20014;-71
2022/12/21 06:50:36;;;;;;;;;;;;;;;;;;5071752;28;19919;-70
2022/12/21 06:53:02;;;;;;;;;;;;;;;;;;5090472;28;19908;-69
2022/12/21 06:55:28;;;;;;;;;;;;;;;;;;5090322;28;20024;-69
2022/12/21 06:57:54;;;;;;;;;;;;;;;;;;5089915;28;19927;-69
2022/12/21 07:00:20;;;;;;;;;;;;;;;;;;5092333;28;20365;-70
2022/12/21 07:02:46;;;;;;;;;;;;;;;;;;5093100;28;19909;-68
2022/12/21 07:05:12;;;;;;;;;;;;;;;;;;5092089;28;20371;-69
2022/12/21 07:07:38;;;;;;;;;;;;;;;;;;5091973;28;19916;-68
2022/12/21 07:10:04;;;;;;;;;;;;;;;;;;5089737;28;19916;-68
2022/12/21 07:12:30;;;;;;;;;;;;;;;;;;5091817;28;19933;-69
2022/12/21 07:14:56;;;;;;;;;;;;;;;;;;5073160;28;19997;-68
2022/12/21 07:17:23;;;;;;;;;;;;;;;;;;5086761;28;19919;-69
2022/12/21 07:19:49;;;;;;;;;;;;;;;;;;5087223;28;19999;-69
2022/12/21 07:22:15;;;;;;;;;;;;;;;;;;5084675;28;20046;-68
2022/12/21 07:24:41;;;;;;;;;;;;;;;;;;5090955;28;19913;-67
2022/12/21 07:27:07;;;;;;;;;;;;;;;;;;5071792;28;19937;-68
2022/12/21 07:29:32;;;;;;;;;;;;;;;;;;5092868;28;19955;-69
2022/12/21 07:31:58;;;;;;;;;;;;;;;;;;5095078;28;19943;-68
2022/12/21 07:34:30;;;;;;;;;;;;;;;;;;5094467;28;19923;-69
2022/12/21 07:37:03;;;;;;;;;;;;;;;;;;5095194;28;19965;-69
2022/12/21 07:39:33;;;;;;;;;;;;;;;;;;5089018;28;20292;-68
2022/12/21 07:42:05;;;;;;;;;;;;;;;;;;5092742;28;20361;-69
2022/12/21 07:44:36;;;;;;;;;;;;;;;;;;5074364;28;20261;-69
2022/12/21 07:47:08;;;;;;;;;;;;;;;;;;5090423;28;19931;-70
2022/12/21 07:49:39;;;;;;;;;;;;;;;;;;5092444;28;19935;-69
2022/12/21 07:52:05;;;;;;;;;;;;;;;;;;5089887;28;20034;-69
2022/12/21 07:54:32;;;;;;;;;;;;;;;;;;5090056;28;19915;-71
2022/12/21 07:57:00;;;;;;;;;;;;;;;;;;5089679;28;20009;-69
2022/12/21 07:59:31;;;;;;;;;;;;;;;;;;5094292;28;20022;-67
2022/12/21 08:02:00;;;;;;;;;;;;;;;;;;5088493;28;20655;-68
2022/12/21 08:04:29;;;;;;;;;;;;;;;;;;5094396;28;19912;-68
2022/12/21 08:06:58;;;;;;;;;;;;;;;;;;5094019;28;19981;-67
2022/12/21 08:09:30;;;;;;;;;;;;;;;;;;5093555;28;20355;-67
2022/12/21 08:12:00;;;;;;;;;;;;;;;;;;5092288;28;19912;-68
2022/12/21 08:14:28;;;;;;;;;;;;;;;;;;5073319;28;19911;-68
2022/12/21 08:16:59;;;;;;;;;;;;;;;;;;5089812;28;20396;-68
2022/12/21 08:19:31;;;;;;;;;;;;;;;;;;5094274;28;20015;-68
2022/12/21 08:22:02;;;;;;;;;;;;;;;;;;5075109;28;19912;-68
2022/12/21 08:24:32;;;;;;;;;;;;;;;;;;5091112;28;19916;-69
2022/12/21 08:26:59;;;;;;;;;;;;;;;;;;5092312;28;20002;-69
2022/12/21 08:29:25;;;;;;;;;;;;;;;;;;5093829;28;19916;-69
2022/12/21 08:31:57;;;;;;;;;;;;;;;;;;5094537;28;20392;-69
2022/12/21 08:34:25;;;;;;;;;;;;;;;;;;5093677;28;19908;-69
2022/12/21 08:36:53;;;;;;;;;;;;;;;;;;5089809;28;20395;-68
2022/12/21 08:39:25;;;;;;;;;;;;;;;;;;5093199;28;19937;-68
2022/12/21 08:41:57;;;;;;;;;;;;;;;;;;5090588;28;19908;-68
2022/12/21 08:44:26;;;;;;;;;;;;;;;;;;5093994;28;19908;-67
2022/12/21 08:46:56;;;;;;;;;;;;;;;;;;5093990;28;19920;-68
2022/12/21 08:49:26;;;;;;;;;;;;;;;;;;5094591;28;20387;-70
2022/12/21 08:52:02;;;;;;;;;;;;;;;;;;5092249;28;20437;-71
2022/12/21 08:54:35;;;;;;;;;;;;;;;;;;5092176;28;19908;-67
2022/12/21 08:57:07;;;;;;;;;;;;;;;;;;5090030;28;20259;-68
2022/12/21 08:59:35;;;;;;;;;;;;;;;;;;5092451;28;19912;-71
2022/12/21 09:02:05;;;;;;;;;;;;;;;;;;5074370;28;19981;-71
2022/12/21 09:04:37;;;;;;;;;;;;;;;;;;5092195;28;19912;-72
2022/12/21 09:07:03;;;;;;;;;;;;;;;;;;5091919;28;19912;-72
2022/12/21 09:09:35;;;;;;;;;;;;;;;;;;5093508;28;19916;-69
2022/12/21 09:12:08;;;;;;;;;;;;;;;;;;5092483;28;19908;-69
2022/12/21 09:14:39;;;;;;;;;;;;;;;;;;5093661;28;19912;-67
2022/12/21 09:17:07;;;;;;;;;;;;;;;;;;5092000;28;19908;-69
2022/12/21 09:19:41;;;;;;;;;;;;;;;;;;5093500;28;19912;-69
2022/12/21 09:22:09;;;;;;;;;;;;;;;;;;5094129;28;19915;-71
2022/12/21 09:24:37;;;;;;;;;;;;;;;;;;5094382;28;19908;-70
2022/12/21 09:27:10;;;;;;;;;;;;;;;;;;5093367;28;19909;-71
2022/12/21 09:29:40;;;;;;;;;;;;;;;;;;5093948;28;19912;-72
2022/12/21 09:32:11;;;;;;;;;;;;;;;;;;5093857;28;19934;-72
2022/12/21 09:34:39;;;;;;;;;;;;;;;;;;5093971;28;19912;-71
2022/12/21 09:37:14;;;;;;;;;;;;;;;;;;5092526;28;19908;-71
2022/12/21 09:39:41;;;;;;;;;;;;;;;;;;5093769;28;19908;-72
2022/12/21 09:42:11;;;;;;;;;;;;;;;;;;5094169;28;20007;-71
2022/12/21 09:44:41;;;;;;;;;;;;;;;;;;5093274;28;19974;-70
2022/12/21 09:47:14;;;;;;;;;;;;;;;;;;5070844;28;20388;-72
2022/12/21 09:49:46;;;;;;;;;;;;;;;;;;5072260;28;20007;-72
2022/12/21 09:52:16;;;;;;;;;;;;;;;;;;5071230;28;19909;-71
2022/12/21 09:54:45;;;;;;;;;;;;;;;;;;5072148;28;20395;-70
2022/12/21 09:57:11;;;;;;;;;;;;;;;;;;5072016;28;20266;-72
2022/12/21 09:59:43;;;;;;;;;;;;;;;;;;5072082;28;19994;-71
2022/12/21 10:02:14;;;;;;;;;;;;;;;;;;5073169;28;19908;-71
2022/12/21 10:04:45;;;;;;;;;;;;;;;;;;5073388;28;19909;-72
2022/12/21 10:07:17;;;;;;;;;;;;;;;;;;5072295;28;19923;-73
2022/12/21 10:09:46;;;;;;;;;;;;;;;;;;5072679;28;19913;-71
2022/12/21 10:12:15;;;;;;;;;;;;;;;;;;5070942;28;19913;-70
2022/12/21 10:14:48;;;;;;;;;;;;;;;;;;5071196;28;19950;-71
2022/12/21 10:17:22;;;;;;;;;;;;;;;;;;5070704;28;20058;-72
2022/12/21 10:19:53;;;;;;;;;;;;;;;;;;5071947;28;20373;-70
2022/12/21 10:22:24;;;;;;;;;;;;;;;;;;5070407;28;20373;-72
2022/12/21 10:24:56;;;;;;;;;;;;;;;;;;5071906;28;19938;-73
2022/12/21 10:27:28;;;;;;;;;;;;;;;;;;5070565;28;19916;-75
2022/12/21 10:29:57;;;;;;;;;;;;;;;;;;5072071;28;19959;-73
2022/12/21 10:32:28;;;;;;;;;;;;;;;;;;5072179;28;19908;-70
2022/12/21 10:35:02;;;;;;;;;;;;;;;;;;5071298;28;19935;-68
2022/12/21 10:37:27;;;;;;;;;;;;;;;;;;5070475;28;19909;-71
2022/12/21 10:39:55;;;;;;;;;;;;;;;;;;5071785;28;19908;-69
2022/12/21 10:42:29;;;;;;;;;;;;;;;;;;5072406;28;19950;-68
2022/12/21 10:44:56;;;;;;;;;;;;;;;;;;5070083;28;19909;-70
2022/12/21 10:47:40;;;;;;;;;;;;;;;;;;5079661;28;20008;-70
2022/12/21 10:50:09;;;;;;;;;;;;;;;;;;5092522;28;19976;-70
2022/12/21 10:52:36;;;;;;;;;;;;;;;;;;5092384;28;20453;-70
2022/12/21 10:55:10;;;;;;;;;;;;;;;;;;5091234;28;19974;-69
2022/12/21 10:57:37;;;;;;;;;;;;;;;;;;5072920;28;19908;-70
2022/12/21 11:00:09;;;;;;;;;;;;;;;;;;5073015;28;20336;-68
2022/12/21 11:07:23;;;;;;;;;;;;;;;;;;4700682;27;11767840;-77
2022/12/21 11:11:01;;;;;;;;;;;;;;;;;;4284349;27;23833042;-73
2022/12/21 11:15:17;;;;;;;;;;;;;;;;;;5108743;27;19920;-76
2022/12/21 11:19:58;;;;;;;;;;;;;;;;;;5103241;27;19927;-76
2022/12/21 11:22:24;;;;;;;;;;;;;;;;;;5095892;28;19912;-73
2022/12/21 11:24:50;;;;;;;;;;;;;;;;;;5088016;28;20429;-73
2022/12/21 11:27:16;;;;;;;;;;;;;;;;;;5089012;28;20729;-72
2022/12/21 11:32:03;;;;;;;;;;;;;;;;;;5109589;27;19912;-74
2022/12/21 11:35:08;;;;;;;;;;;;;;;;;;5090870;27;19923;-74
2022/12/21 11:40:21;;;;;;;;;;;;;;;;;;5110175;27;19916;-75
2022/12/21 11:42:47;;;;;;;;;;;;;;;;;;5110153;28;19919;-77
2022/12/21 11:45:14;;;;;;;;;;;;;;;;;;5110594;28;19914;-75
2022/12/21 11:52:18;;;;;;;;;;;;;;;;;;5110840;27;19916;-75
2022/12/21 11:54:44;;;;;;;;;;;;;;;;;;5110576;28;20455;-74
2022/12/21 11:59:25;;;;;;;;;;;;;;;;;;5152197;27;20368;-74
2022/12/21 12:04:40;;;;;;;;;;;;;;;;;;5108986;27;19922;-73
2022/12/21 12:07:06;;;;;;;;;;;;;;;;;;5106995;28;20368;-75
2022/12/21 12:09:32;;;;;;;;;;;;;;;;;;5100816;28;19962;-75
2022/12/21 12:12:58;;;;;;;;;;;;;;;;;;5109019;27;20674;-74
2022/12/21 12:16:20;;;;;;;;;;;;;;;;;;5149265;27;19919;-76
2022/12/21 12:18:46;;;;;;;;;;;;;;;;;;5130648;27;20387;-77
2022/12/21 12:21:12;;;;;;;;;;;;;;;;;;5130886;28;19912;-74
2022/12/21 12:23:38;;;;;;;;;;;;;;;;;;5128556;28;20364;-76
2022/12/21 12:28:49;;;;;;;;;;;;;;;;;;5108779;27;19916;-73
2022/12/21 12:32:48;;;;;;;;;;;;;;;;;;5088740;28;19919;-75
2022/12/21 12:35:14;;;;;;;;;;;;;;;;;;5086612;28;19916;-71
2022/12/21 12:37:40;;;;;;;;;;;;;;;;;;5087259;28;20021;-74
2022/12/21 12:40:24;;;;;;;;;;;;;;;;;;5111318;27;19916;-71
2022/12/21 12:42:51;;;;;;;;;;;;;;;;;;5117154;28;19935;-71
2022/12/21 12:45:17;;;;;;;;;;;;;;;;;;5110801;28;19908;-74
2022/12/21 12:47:43;;;;;;;;;;;;;;;;;;5110529;28;19926;-74
2022/12/21 12:50:09;;;;;;;;;;;;;;;;;;5110967;28;19908;-73
2022/12/21 12:53:40;;;;;;;;;;;;;;;;;;5090215;27;20014;-73
2022/12/21 12:56:06;;;;;;;;;;;;;;;;;;5089979;28;19999;-72
2022/12/21 12:58:42;;;;;;;;;;;;;;;;;;5089290;27;19917;-73
2022/12/21 13:01:54;;;;;;;;;;;;;;;;;;5110524;27;19934;-73
2022/12/21 13:04:59;;;;;;;;;;;;;;;;;;5109678;27;20404;-73
2022/12/21 13:08:17;;;;;;;;;;;;;;;;;;5109860;27;19912;-73
2022/12/21 13:10:43;;;;;;;;;;;;;;;;;;5110517;28;19918;-73
2022/12/21 13:14:08;;;;;;;;;;;;;;;;;;5087836;27;19916;-74
2022/12/21 13:17:56;;;;;;;;;;;;;;;;;;5110787;27;20299;-75
2022/12/21 13:26:39;;;;;;;;;;;;;;;;;;5110913;27;19927;-74
2022/12/21 13:33:50;;;;;;;;;;;;;;;;;;5090567;27;19923;-73
2022/12/21 13:36:15;;;;;;;;;;;;;;;;;;5090609;28;19912;-72
2022/12/21 13:38:41;;;;;;;;;;;;;;;;;;5089061;28;19908;-74
2022/12/21 13:42:57;;;;;;;;;;;;;;;;;;5108583;27;19916;-74
2022/12/21 13:45:23;;;;;;;;;;;;;;;;;;5108376;28;19912;-74
2022/12/21 13:52:53;;;;;;;;;;;;;;;;;;5089615;28;19920;-69
2022/12/21 13:55:19;;;;;;;;;;;;;;;;;;5088960;28;20002;-69
2022/12/21 13:58:10;;;;;;;;;;;;;;;;;;5088117;27;20372;-69
2022/12/21 14:00:36;;;;;;;;;;;;;;;;;;5088046;28;19912;-68
2022/12/21 14:05:23;;;;;;;;;;;;;;;;;;5109059;27;19922;-68
2022/12/21 14:07:49;;;;;;;;;;;;;;;;;;5108723;28;19912;-69
2022/12/21 14:11:27;;;;;;;;;;;;;;;;;;5111074;27;20397;-68
2022/12/21 14:13:53;;;;;;;;;;;;;;;;;;5111218;28;19994;-70
2022/12/21 14:19:40;;;;;;;;;;;;;;;;;;5091455;27;19916;-69
2022/12/21 14:22:06;;;;;;;;;;;;;;;;;;5090753;28;20015;-68
2022/12/21 14:24:32;;;;;;;;;;;;;;;;;;5091015;28;20361;-69
2022/12/21 14:26:58;;;;;;;;;;;;;;;;;;5091346;28;20368;-69
2022/12/21 14:31:22;;;;;;;;;;;;;;;;;;5091754;28;19922;-69
2022/12/21 14:33:48;;;;;;;;;;;;;;;;;;5091834;28;19913;-69
2022/12/21 14:36:14;;;;;;;;;;;;;;;;;;5090885;28;19938;-69
2022/12/21 14:40:03;;;;;;;;;;;;;;;;;;5091888;27;20386;-69
2022/12/21 14:42:29;;;;;;;;;;;;;;;;;;5090882;28;20007;-69
2022/12/21 14:44:55;;;;;;;;;;;;;;;;;;5091202;28;20326;-69
2022/12/21 14:47:21;;;;;;;;;;;;;;;;;;5091284;28;19908;-68
2022/12/21 14:49:47;;;;;;;;;;;;;;;;;;5090732;28;19914;-69
2022/12/21 14:52:13;;;;;;;;;;;;;;;;;;5089854;28;19912;-69
2022/12/21 14:56:55;;;;;;;;;;;;;;;;;;5131747;27;19922;-69
2022/12/21 14:59:21;;;;;;;;;;;;;;;;;;5132103;28;19998;-69
2022/12/21 15:01:48;;;;;;;;;;;;;;;;;;5132043;28;20279;-69
2022/12/21 15:04:14;;;;;;;;;;;;;;;;;;5131709;28;20285;-68
2022/12/21 15:06:40;;;;;;;;;;;;;;;;;;5132004;28;19987;-69
2022/12/21 15:09:06;;;;;;;;;;;;;;;;;;5132436;28;20356;-69
2022/12/21 15:11:32;;;;;;;;;;;;;;;;;;5131402;28;19960;-69
2022/12/21 15:14:01;;;;;;;;;;;;;;;;;;5132009;28;20379;-71
2022/12/21 15:16:26;;;;;;;;;;;;;;;;;;5131644;28;20356;-69
2022/12/21 15:18:52;;;;;;;;;;;;;;;;;;5131309;28;20015;-69
2022/12/21 15:21:18;;;;;;;;;;;;;;;;;;5131671;28;19908;-69
2022/12/21 15:23:44;;;;;;;;;;;;;;;;;;5131261;28;19907;-69
2022/12/21 15:26:10;;;;;;;;;;;;;;;;;;5131690;28;19915;-68
2022/12/21 15:28:37;;;;;;;;;;;;;;;;;;5131742;28;19943;-68
2022/12/21 15:31:02;;;;;;;;;;;;;;;;;;5131371;28;20324;-68
2022/12/21 15:33:33;;;;;;;;;;;;;;;;;;5131561;28;19915;-68
2022/12/21 15:35:59;;;;;;;;;;;;;;;;;;5131439;28;19922;-68
2022/12/21 15:38:25;;;;;;;;;;;;;;;;;;5130996;28;20269;-68
2022/12/21 15:40:51;;;;;;;;;;;;;;;;;;5131321;28;20266;-68
2022/12/21 15:43:17;;;;;;;;;;;;;;;;;;5131271;28;19908;-68
2022/12/21 15:45:43;;;;;;;;;;;;;;;;;;5130858;28;19961;-69
2022/12/21 15:48:09;;;;;;;;;;;;;;;;;;5131289;28;19915;-70
2022/12/21 15:50:35;;;;;;;;;;;;;;;;;;5131093;28;19956;-70
2022/12/21 15:53:04;;;;;;;;;;;;;;;;;;5130753;28;19915;-70
2022/12/21 15:55:30;;;;;;;;;;;;;;;;;;5130761;28;19920;-70
2022/12/21 15:57:56;;;;;;;;;;;;;;;;;;5131224;28;19915;-70
2022/12/21 16:00:22;;;;;;;;;;;;;;;;;;5130733;28;19908;-70
2022/12/21 16:02:48;;;;;;;;;;;;;;;;;;5130820;28;20348;-69
2022/12/21 16:05:14;;;;;;;;;;;;;;;;;;5130749;28;19947;-70
2022/12/21 16:07:40;;;;;;;;;;;;;;;;;;5120120;28;19930;-68
2022/12/21 16:10:06;;;;;;;;;;;;;;;;;;5117091;28;19907;-68
2022/12/21 16:12:33;;;;;;;;;;;;;;;;;;5117335;28;19908;-67
2022/12/21 16:14:59;;;;;;;;;;;;;;;;;;5116609;28;19912;-70
2022/12/21 16:17:25;;;;;;;;;;;;;;;;;;5117013;28;20006;-69
2022/12/21 16:19:51;;;;;;;;;;;;;;;;;;5116772;28;19931;-69
2022/12/21 16:22:17;;;;;;;;;;;;;;;;;;5116324;28;19911;-69
2022/12/21 16:24:43;;;;;;;;;;;;;;;;;;5116808;28;19907;-70
2022/12/21 16:27:09;;;;;;;;;;;;;;;;;;5116444;28;19931;-69
2022/12/21 16:29:35;;;;;;;;;;;;;;;;;;5116798;28;19912;-69
2022/12/21 16:32:03;;;;;;;;;;;;;;;;;;5116714;28;19908;-69
2022/12/21 16:34:29;;;;;;;;;;;;;;;;;;5116159;28;19958;-70
2022/12/21 16:36:55;;;;;;;;;;;;;;;;;;5116878;28;19915;-70
2022/12/21 16:39:21;;;;;;;;;;;;;;;;;;5116576;28;19915;-69
2022/12/21 16:41:47;;;;;;;;;;;;;;;;;;5116103;28;19908;-70
2022/12/21 16:44:13;;;;;;;;;;;;;;;;;;5116590;28;19908;-70
2022/12/21 16:46:39;;;;;;;;;;;;;;;;;;5116454;28;19908;-70
2022/12/21 16:49:05;;;;;;;;;;;;;;;;;;5115843;28;19931;-70
2022/12/21 16:51:30;;;;;;;;;;;;;;;;;;5116327;28;19994;-70
2022/12/21 16:53:56;;;;;;;;;;;;;;;;;;5116274;28;19908;-70
2022/12/21 16:56:27;;;;;;;;;;;;;;;;;;5115671;28;19920;-69
2022/12/21 16:58:53;;;;;;;;;;;;;;;;;;5116340;28;19930;-69
2022/12/21 17:01:19;;;;;;;;;;;;;;;;;;5116210;28;20368;-70
2022/12/21 17:03:45;;;;;;;;;;;;;;;;;;5114566;28;19911;-71
2022/12/21 17:06:11;;;;;;;;;;;;;;;;;;5116131;28;20257;-70
2022/12/21 17:08:37;;;;;;;;;;;;;;;;;;5116235;28;19960;-70
2022/12/21 17:11:03;;;;;;;;;;;;;;;;;;5115449;28;20382;-70
2022/12/21 17:13:29;;;;;;;;;;;;;;;;;;5116312;28;19915;-69
2022/12/21 17:15:55;;;;;;;;;;;;;;;;;;5115763;28;19920;-70
2022/12/21 17:18:21;;;;;;;;;;;;;;;;;;5114469;28;20356;-70
2022/12/21 17:20:47;;;;;;;;;;;;;;;;;;5115884;28;20257;-68
2022/12/21 17:23:13;;;;;;;;;;;;;;;;;;5115642;28;19947;-68
2022/12/21 17:25:39;;;;;;;;;;;;;;;;;;5113916;28;19951;-69
2022/12/21 17:28:05;;;;;;;;;;;;;;;;;;5115808;28;19919;-69
2022/12/21 17:30:31;;;;;;;;;;;;;;;;;;5115152;28;19911;-70
2022/12/21 17:32:57;;;;;;;;;;;;;;;;;;5115503;28;19908;-69
2022/12/21 17:35:23;;;;;;;;;;;;;;;;;;5115372;28;19922;-69
2022/12/21 17:37:49;;;;;;;;;;;;;;;;;;5114946;28;20421;-68
2022/12/21 17:40:16;;;;;;;;;;;;;;;;;;5115284;28;20006;-69
2022/12/21 17:42:42;;;;;;;;;;;;;;;;;;5115614;28;19912;-69
2022/12/21 17:45:08;;;;;;;;;;;;;;;;;;5114810;28;19915;-69
2022/12/21 17:47:34;;;;;;;;;;;;;;;;;;5115300;28;19907;-69
2022/12/21 17:50:00;;;;;;;;;;;;;;;;;;5115237;28;19907;-69
2022/12/21 17:52:25;;;;;;;;;;;;;;;;;;5114715;28;19915;-68
2022/12/21 17:54:51;;;;;;;;;;;;;;;;;;5114870;28;19920;-68
2022/12/21 17:57:17;;;;;;;;;;;;;;;;;;5113665;28;19939;-69
2022/12/21 17:59:43;;;;;;;;;;;;;;;;;;5114689;28;19911;-68
2022/12/21 18:02:09;;;;;;;;;;;;;;;;;;5114907;28;19961;-69
2022/12/21 18:04:35;;;;;;;;;;;;;;;;;;5114866;28;19915;-68
2022/12/21 18:07:01;;;;;;;;;;;;;;;;;;5114741;28;19908;-69